Time;durP1;ratioP1;P1;durP2;ratioP2;P2;SDS_P1;SDS_P2;PMS_P1;PMS_P2;Temp;Humidity;BMP_temperature;BMP_pressure;BME280_temperature;BME280_humidity;BME280_pressure;Samples;Min_cycle;Max_cycle;Signal;HPM_P1;HPM_P2
2021/05/26 00:01:41;;;;;;;;;2.67;2.67;;;;;14.94;61.94;100970.28;5093622;27;47688;-78
2021/05/26 00:04:08;;;;;;;;;5.33;4.00;;;;;14.94;61.55;100954.25;5089919;27;45493;-77
2021/05/26 00:06:33;;;;;;;;;6.33;6.33;;;;;14.97;61.91;100970.16;5093202;27;45431;-78
2021/05/26 00:08:59;;;;;;;;;9.67;6.67;;;;;14.98;61.60;100963.88;5090068;27;46952;-77
2021/05/26 00:11:24;;;;;;;;;5.00;5.00;;;;;14.95;61.70;100962.19;5082414;27;47581;-77
2021/05/26 00:13:50;;;;;;;;;6.00;4.00;;;;;14.92;61.25;100954.28;5093583;27;45581;-78
2021/05/26 00:16:16;;;;;;;;;3.00;3.00;;;;;14.90;61.16;100956.16;5090338;27;45746;-75
2021/05/26 00:18:42;;;;;;;;;4.00;3.00;;;;;14.90;61.42;100945.47;5085046;27;45448;-77
2021/05/26 00:21:09;;;;;;;;;6.00;5.00;;;;;14.89;60.96;100943.72;5088632;27;47582;-77
2021/05/26 00:23:36;;;;;;;;;5.33;4.00;;;;;14.85;61.38;100942.06;5087900;27;45376;-78
2021/05/26 00:26:02;;;;;;;;;4.00;4.00;;;;;14.85;61.49;100928.72;5093170;27;45435;-78
2021/05/26 00:28:28;;;;;;;;;7.33;4.00;;;;;14.83;61.58;100927.03;5091897;27;45610;-79
2021/05/26 00:30:55;;;;;;;;;5.33;3.00;;;;;14.83;61.52;100919.88;5078408;27;47604;-78
2021/05/26 00:33:21;;;;;;;;;6.67;5.67;;;;;14.82;61.83;100918.13;5082944;27;45696;-77
2021/05/26 00:35:47;;;;;;;;;6.00;6.00;;;;;14.83;61.59;100913.66;5082183;27;45396;-77
2021/05/26 00:38:14;;;;;;;;;5.00;4.00;;;;;14.81;61.61;100902.16;5080760;27;45622;-79
2021/05/26 00:40:41;;;;;;;;;5.67;5.67;;;;;14.82;61.66;100907.44;5085173;27;45938;-77
2021/05/26 00:43:06;;;;;;;;;4.00;4.00;;;;;14.79;61.65;100891.53;5092514;27;45445;-78
2021/05/26 00:45:32;;;;;;;;;5.00;5.00;;;;;14.80;61.75;100893.28;5091912;27;45548;-78
2021/05/26 00:47:58;;;;;;;;;4.67;3.67;;;;;14.73;62.04;100887.28;5092479;27;45476;-79
2021/05/26 00:50:29;;;;;;;;;2.67;2.67;;;;;14.70;62.57;100871.38;5082158;27;48321;-78
2021/05/26 00:52:59;;;;;;;;;6.00;4.00;;;;;14.67;62.28;100873.28;5092032;27;45503;-77
2021/05/26 00:55:25;;;;;;;;;3.67;3.33;;;;;14.69;62.14;100863.41;5080887;27;45649;-77
2021/05/26 00:57:51;;;;;;;;;2.67;2.00;;;;;14.69;62.16;100864.28;5090631;27;45486;-76
2021/05/26 01:00:20;;;;;;;;;3.00;3.00;;;;;14.67;62.39;100874.16;5087219;27;46344;-78
2021/05/26 01:02:51;;;;;;;;;3.00;3.00;;;;;14.67;62.38;100860.78;5086743;27;45581;-78
2021/05/26 01:05:19;;;;;;;;;3.00;3.00;;;;;14.67;63.01;100854.59;5096023;27;45533;-78
2021/05/26 01:07:44;;;;;;;;;4.00;3.00;;;;;14.66;62.63;100847.50;5089294;27;45478;-77
2021/05/26 01:10:13;;;;;;;;;3.00;3.00;;;;;14.68;62.42;100837.63;5082490;27;46192;-78
2021/05/26 01:12:39;;;;;;;;;2.33;2.33;;;;;14.66;62.57;100842.16;5091216;27;45559;-79
2021/05/26 01:15:07;;;;;;;;;3.67;3.67;;;;;14.64;62.37;100844.88;5092706;27;45420;-79
2021/05/26 01:17:34;;;;;;;;;3.00;2.00;;;;;14.62;62.37;100836.06;5081043;27;45562;-79
2021/05/26 01:20:00;;;;;;;;;2.00;2.00;;;;;14.59;62.57;100828.13;5087369;27;46515;-79
2021/05/26 01:22:25;;;;;;;;;6.67;3.00;;;;;14.57;62.66;100816.66;5085954;27;46623;-79
2021/05/26 01:24:51;;;;;;;;;3.33;2.67;;;;;14.59;62.75;100819.25;5080705;27;45439;-78
2021/05/26 01:27:16;;;;;;;;;5.33;4.00;;;;;14.60;62.49;100815.66;5094574;27;46144;-78
2021/05/26 01:29:42;;;;;;;;;4.00;3.00;;;;;14.61;62.52;100818.31;5096061;27;47054;-77
2021/05/26 01:32:07;;;;;;;;;2.67;2.67;;;;;14.57;62.50;100800.63;5089988;27;45298;-78
2021/05/26 01:34:32;;;;;;;;;1.00;1.00;;;;;14.57;62.83;100800.63;5087873;27;45461;-79
2021/05/26 01:36:58;;;;;;;;;1.33;1.33;;;;;14.56;62.71;100793.53;5080851;27;45393;-77
2021/05/26 01:39:24;;;;;;;;;4.67;3.67;;;;;14.58;62.76;100797.03;5081230;27;45681;-79
2021/05/26 01:41:49;;;;;;;;;2.00;2.00;;;;;14.56;62.89;100801.56;5085497;27;45766;-78
2021/05/26 01:44:15;;;;;;;;;1.00;1.00;;;;;14.56;63.02;100788.19;5092470;27;45407;-78
2021/05/26 01:46:41;;;;;;;;;1.00;1.00;;;;;14.54;62.85;100783.84;5085820;27;45613;-79
2021/05/26 01:49:07;;;;;;;;;1.67;1.33;;;;;14.56;62.76;100785.53;5087311;27;46227;-79
2021/05/26 01:51:34;;;;;;;;;2.00;2.00;;;;;14.55;63.14;100781.13;5082081;27;45539;-78
2021/05/26 01:54:00;;;;;;;;;4.00;3.00;;;;;14.53;62.71;100780.31;5091284;27;45322;-77
2021/05/26 01:56:28;;;;;;;;;3.00;2.67;;;;;14.53;63.11;100788.31;5089436;27;45868;-78
2021/05/26 01:58:55;;;;;;;;;4.00;2.67;;;;;14.53;63.02;100771.44;5094864;27;46197;-78
2021/05/26 02:01:22;;;;;;;;;2.33;2.33;;;;;14.54;62.76;100773.16;5090876;27;45462;-78
2021/05/26 02:03:49;;;;;;;;;2.00;2.00;;;;;14.52;63.14;100765.22;5087007;27;45409;-78
2021/05/26 02:06:16;;;;;;;;;2.67;2.33;;;;;14.49;62.96;100752.00;5092374;27;45542;-78
2021/05/26 02:08:43;;;;;;;;;3.67;2.67;;;;;14.51;63.19;100755.47;5087547;27;45416;-77
2021/05/26 02:13:58;;;;;;;;;3.00;3.00;;;;;14.51;63.07;100760.81;5082681;27;45501;-76
2021/05/26 02:16:23;;;;;;;;;3.33;2.33;;;;;14.52;63.21;100753.66;5080816;27;48697;-76
2021/05/26 02:18:49;;;;;;;;;1.00;1.00;;;;;14.52;63.01;100745.66;5082486;27;47006;-78
2021/05/26 02:21:14;;;;;;;;;2.67;2.00;;;;;14.51;63.24;100747.47;5089122;27;45771;-79
2021/05/26 02:23:40;;;;;;;;;3.67;3.00;;;;;14.51;62.95;100751.94;5090922;27;45341;-78
2021/05/26 02:26:05;;;;;;;;;3.00;2.00;;;;;14.52;63.21;100742.97;5089845;27;45504;-79
2021/05/26 02:28:30;;;;;;;;;3.00;3.00;;;;;14.55;62.96;100741.06;5080165;27;45542;-78
2021/05/26 02:30:56;;;;;;;;;1.67;1.00;;;;;14.55;63.16;100733.06;5083178;27;45356;-78
2021/05/26 02:33:21;;;;;;;;;2.33;2.00;;;;;14.56;63.33;100733.91;5093567;27;45437;-77
2021/05/26 02:35:47;;;;;;;;;2.67;1.00;;;;;14.55;63.20;100727.72;5092649;27;45506;-78
2021/05/26 02:38:13;;;;;;;;;1.00;1.00;;;;;14.54;63.24;100720.63;5074954;27;45918;-77
2021/05/26 02:40:38;;;;;;;;;2.33;2.33;;;;;14.52;63.38;100718.94;5093518;27;45502;-78
2021/05/26 02:43:04;;;;;;;;;2.00;2.00;;;;;14.53;63.10;100721.56;5090200;27;45365;-78
2021/05/26 02:45:31;;;;;;;;;2.33;2.33;;;;;14.49;63.32;100721.75;5079130;27;45413;-77
2021/05/26 02:47:57;;;;;;;;;3.67;2.33;;;;;14.47;63.17;100711.09;5084360;27;47507;-79
2021/05/26 02:50:23;;;;;;;;;3.00;2.00;;;;;14.50;63.52;100721.69;5083788;27;46114;-78
2021/05/26 02:52:51;;;;;;;;;1.67;1.00;;;;;14.50;63.35;100723.47;5080285;27;45413;-79
2021/05/26 02:55:17;;;;;;;;;2.00;2.00;;;;;14.48;63.33;100711.97;5091464;27;45584;-78
2021/05/26 02:57:42;;;;;;;;;1.67;1.67;;;;;14.48;63.57;100712.84;5076558;27;48090;-79
2021/05/26 03:00:09;;;;;;;;;4.00;4.00;;;;;14.46;63.66;100714.69;5077721;27;45437;-79
2021/05/26 03:02:34;;;;;;;;;2.00;2.00;;;;;14.46;63.59;100713.81;5094426;27;45368;-78
2021/05/26 03:05:00;;;;;;;;;1.00;1.00;;;;;14.46;63.69;100711.16;5094471;27;45534;-78
2021/05/26 03:07:25;;;;;;;;;7.67;2.00;;;;;14.48;63.66;100709.28;5090894;27;48120;-78
2021/05/26 03:09:51;;;;;;;;;2.67;2.67;;;;;14.50;63.73;100710.13;5088780;27;46160;-77
2021/05/26 03:12:16;;;;;;;;;1.00;1.00;;;;;14.51;63.80;100720.75;5097095;27;45400;-77
2021/05/26 03:14:41;;;;;;;;;4.00;3.33;;;;;14.51;63.51;100715.41;5081209;27;45283;-76
2021/05/26 03:17:07;;;;;;;;;2.00;1.33;;;;;14.50;63.50;100715.47;5078593;27;45471;-77
2021/05/26 03:19:32;;;;;;;;;1.00;1.00;;;;;14.51;63.59;100704.72;5080623;27;45372;-79
2021/05/26 03:21:58;;;;;;;;;2.33;2.33;;;;;14.53;63.43;100710.00;5084059;27;45357;-77
2021/05/26 03:24:23;;;;;;;;;1.00;1.00;;;;;14.51;63.50;100703.88;5088233;27;45471;-78
2021/05/26 03:26:49;;;;;;;;;1.67;1.67;;;;;14.56;63.91;100713.44;5102534;27;47657;-77
2021/05/26 03:29:15;;;;;;;;;1.00;1.00;;;;;14.56;63.35;100697.41;5083124;27;45950;-77
2021/05/26 03:31:41;;;;;;;;;2.00;2.00;;;;;14.59;63.78;100710.63;5088608;27;45546;-77
2021/05/26 03:34:06;;;;;;;;;1.33;1.33;;;;;14.58;63.63;100697.34;5082291;27;45590;-79
2021/05/26 03:36:32;;;;;;;;;2.00;2.00;;;;;14.58;63.60;100703.53;5092734;27;47671;-76
2021/05/26 03:38:57;;;;;;;;;1.67;1.67;;;;;14.55;63.74;100690.31;5090263;27;45330;-79
2021/05/26 03:41:22;;;;;;;;;1.33;1.00;;;;;14.54;63.74;100685.91;5081214;27;46111;-77
2021/05/26 03:43:48;;;;;;;;;1.67;1.67;;;;;14.59;63.74;100688.41;5083084;27;45474;-80
2021/05/26 03:46:13;;;;;;;;;2.67;1.67;;;;;14.60;64.03;100690.13;5093813;27;46929;-78
2021/05/26 03:48:39;;;;;;;;;1.00;1.00;;;;;14.58;63.98;100683.97;5079013;27;45680;-79
2021/05/26 03:51:04;;;;;;;;;2.33;2.00;;;;;14.60;63.86;100695.47;5107243;27;45561;-80
2021/05/26 03:53:31;;;;;;;;;3.00;2.00;;;;;14.59;63.87;100680.38;5086500;27;45328;-79
2021/05/26 03:55:56;;;;;;;;;4.67;4.67;;;;;14.63;63.81;100680.22;5083558;27;47948;-79
2021/05/26 03:58:22;;;;;;;;;1.00;1.00;;;;;14.64;64.34;100684.63;5086910;27;46246;-77
2021/05/26 04:00:47;;;;;;;;;1.67;1.33;;;;;14.67;63.83;100699.66;5089785;27;45449;-78
2021/05/26 04:03:14;;;;;;;;;1.00;1.00;;;;;14.66;64.01;100682.78;5082441;27;45469;-78
2021/05/26 04:05:39;;;;;;;;;2.00;2.00;;;;;14.70;63.92;100678.16;5094348;27;48434;-78
2021/05/26 04:08:05;;;;;;;;;1.00;1.00;;;;;14.71;64.05;100694.13;5088533;27;45408;-78
2021/05/26 04:10:30;;;;;;;;;0.33;0.33;;;;;14.71;64.24;100698.59;5081551;27;47304;-79
2021/05/26 04:12:56;;;;;;;;;1.67;1.67;;;;;14.72;64.00;100698.53;5082175;27;45618;-78
2021/05/26 04:15:21;;;;;;;;;1.33;1.33;;;;;14.72;63.70;100690.53;5091626;27;48033;-80
2021/05/26 04:17:47;;;;;;;;;2.00;1.00;;;;;14.73;63.82;100683.38;5077543;27;45472;-78
2021/05/26 04:20:12;;;;;;;;;2.00;2.00;;;;;14.73;64.08;100691.41;5085581;27;45301;-80
2021/05/26 04:22:38;;;;;;;;;1.00;1.00;;;;;14.71;63.53;100680.78;5084008;27;45363;-77
2021/05/26 04:25:05;;;;;;;;;1.33;1.33;;;;;14.75;64.04;100683.34;5092897;27;46000;-78
2021/05/26 04:27:30;;;;;;;;;2.00;2.00;;;;;14.76;63.93;100680.63;5091294;27;46403;-78
2021/05/26 04:29:56;;;;;;;;;1.00;1.00;;;;;14.76;63.94;100691.31;5087347;27;45587;-78
2021/05/26 04:32:21;;;;;;;;;0.33;0.33;;;;;14.78;64.24;100699.25;5093188;27;45509;-76
2021/05/26 04:34:47;;;;;;;;;0.33;0.33;;;;;14.80;64.07;100689.38;5085312;27;45918;-78
2021/05/26 04:37:13;;;;;;;;;2.00;1.00;;;;;14.80;63.93;100692.91;5094115;27;45458;-78
2021/05/26 04:39:38;;;;;;;;;1.00;1.00;;;;;14.83;63.93;100683.91;5089057;27;45468;-78
2021/05/26 04:42:04;;;;;;;;;0.67;0.67;;;;;14.84;63.79;100685.63;5090051;27;45477;-78
2021/05/26 04:44:29;;;;;;;;;0.00;0.00;;;;;14.89;64.02;100679.19;5093493;27;46411;-78
2021/05/26 04:46:55;;;;;;;;;0.33;0.33;;;;;14.89;63.73;100676.53;5082374;27;45522;-78
2021/05/26 04:49:20;;;;;;;;;1.00;1.00;;;;;14.91;63.50;100679.13;5093472;27;45477;-76
2021/05/26 04:51:46;;;;;;;;;0.00;0.00;;;;;14.91;63.57;100673.78;5089739;27;45622;-77
2021/05/26 04:54:11;;;;;;;;;0.00;0.00;;;;;14.91;63.46;100682.66;5086788;27;47481;-78
2021/05/26 04:56:37;;;;;;;;;0.33;0.00;;;;;14.91;63.60;100696.03;5082133;27;45455;-77
2021/05/26 04:59:02;;;;;;;;;0.00;0.00;;;;;14.92;63.60;100689.75;5082732;27;45807;-78
2021/05/26 05:01:28;;;;;;;;;0.00;0.00;;;;;14.93;63.60;100694.16;5084661;27;45692;-78
2021/05/26 05:03:53;;;;;;;;;1.67;1.67;;;;;14.92;63.64;100697.75;5083377;27;46241;-77
2021/05/26 05:06:20;;;;;;;;;0.00;0.00;;;;;14.93;63.66;100693.28;5091280;27;45455;-77
2021/05/26 05:08:46;;;;;;;;;0.00;0.00;;;;;14.92;63.56;100713.81;5084162;27;45425;-76
2021/05/26 05:11:11;;;;;;;;;0.00;0.00;;;;;14.91;63.60;100698.69;5079103;27;46251;-78
2021/05/26 05:13:37;;;;;;;;;0.00;0.00;;;;;14.96;63.58;100698.50;5078549;27;45548;-77
2021/05/26 05:16:02;;;;;;;;;0.00;0.00;;;;;14.97;63.45;100705.59;5084763;27;45736;-79
2021/05/26 05:18:28;;;;;;;;;0.00;0.00;;;;;14.95;63.55;100716.34;5088989;27;45565;-78
2021/05/26 05:20:53;;;;;;;;;0.00;0.00;;;;;14.97;63.13;100721.63;5083984;27;45576;-78
2021/05/26 05:23:19;;;;;;;;;0.00;0.00;;;;;14.96;62.69;100734.13;5079026;27;47216;-77
2021/05/26 05:25:44;;;;;;;;;0.00;0.00;;;;;14.96;62.29;100741.25;5093242;27;45377;-78
2021/05/26 05:28:11;;;;;;;;;0.00;0.00;;;;;14.96;62.03;100751.94;5090948;27;45368;-78
2021/05/26 05:30:36;;;;;;;;;0.00;0.00;;;;;14.92;62.14;100764.56;5088967;27;45526;-78
2021/05/26 05:33:02;;;;;;;;;0.00;0.00;;;;;14.89;61.31;100762.03;5085969;27;45990;-77
2021/05/26 05:35:28;;;;;;;;;0.00;0.00;;;;;14.88;61.46;100775.44;5082151;27;45489;-79
2021/05/26 05:37:53;;;;;;;;;0.00;0.00;;;;;14.84;61.19;100763.97;5091136;27;45441;-78
2021/05/26 05:40:19;;;;;;;;;0.00;0.00;;;;;14.87;60.87;100771.03;5083669;27;48601;-76
2021/05/26 05:42:45;;;;;;;;;0.00;0.00;;;;;14.85;60.98;100763.06;5085783;27;45434;-77
2021/05/26 05:45:11;;;;;;;;;0.00;0.00;;;;;14.84;60.81;100774.66;5079549;27;46269;-78
2021/05/26 05:47:37;;;;;;;;;0.00;0.00;;;;;14.84;60.98;100782.69;5092722;27;45537;-77
2021/05/26 05:50:03;;;;;;;;;0.00;0.00;;;;;14.85;60.87;100771.06;5080671;27;46004;-78
2021/05/26 05:52:29;;;;;;;;;0.00;0.00;;;;;14.85;60.99;100772.88;5091616;27;47717;-77
2021/05/26 05:54:54;;;;;;;;;0.00;0.00;;;;;14.85;60.90;100772.88;5081170;27;45338;-79
2021/05/26 05:57:20;;;;;;;;;0.00;0.00;;;;;14.84;61.11;100781.81;5092655;27;45467;-70
2021/05/26 05:59:46;;;;;;;;;0.00;0.00;;;;;14.82;60.93;100781.00;5090693;27;45499;-70
2021/05/26 06:02:11;;;;;;;;;0.00;0.00;;;;;14.79;60.87;100783.81;5088175;27;46755;-73
2021/05/26 06:04:37;;;;;;;;;0.00;0.00;;;;;14.78;60.81;100790.09;5087519;27;45470;-74
2021/05/26 06:07:03;;;;;;;;;0.00;0.00;;;;;14.80;61.05;100796.22;5085342;27;45505;-75
2021/05/26 06:09:29;;;;;;;;;0.00;0.00;;;;;14.83;60.81;100790.75;5096680;27;45594;-75
2021/05/26 06:11:55;;;;;;;;;0.00;0.00;;;;;14.83;60.98;100796.09;5085447;27;47712;-75
2021/05/26 06:14:20;;;;;;;;;0.00;0.00;;;;;14.83;61.10;100798.78;5088958;27;45412;-74
2021/05/26 06:16:46;;;;;;;;;0.33;0.33;;;;;14.82;61.08;100811.28;5088873;27;45415;-76
2021/05/26 06:19:12;;;;;;;;;0.00;0.00;;;;;14.82;61.15;100813.94;5091234;27;45499;-78
2021/05/26 06:21:37;;;;;;;;;1.00;1.00;;;;;14.78;60.98;100808.78;5082772;27;47253;-75
2021/05/26 06:24:03;;;;;;;;;0.00;0.00;;;;;14.81;61.29;100822.03;5079582;27;45503;-76
2021/05/26 06:26:33;;;;;;;;;0.00;0.00;;;;;14.80;61.17;100821.16;5085015;27;45411;-78
2021/05/26 06:29:00;;;;;;;;;0.67;0.33;;;;;14.81;61.29;100835.38;5080535;27;45613;-77
2021/05/26 06:31:26;;;;;;;;;0.00;0.00;;;;;14.81;61.20;100825.56;5087545;27;45735;-77
2021/05/26 06:33:51;;;;;;;;;0.33;0.00;;;;;14.81;61.31;100840.72;5080945;27;45637;-78
2021/05/26 06:36:17;;;;;;;;;0.00;0.00;;;;;14.82;61.02;100843.31;5093230;27;45507;-79
2021/05/26 06:38:42;;;;;;;;;1.33;1.33;;;;;14.81;61.24;100830.03;5094758;27;45589;-79
2021/05/26 06:41:09;;;;;;;;;0.00;0.00;;;;;14.88;61.22;100844.91;5091353;27;48523;-76
2021/05/26 06:43:34;;;;;;;;;0.00;0.00;;;;;14.92;61.09;100847.41;5087618;27;45479;-76
2021/05/26 06:45:59;;;;;;;;;0.00;0.00;;;;;14.99;60.47;100856.94;5093660;27;46238;-76
2021/05/26 06:48:25;;;;;;;;;0.33;0.33;;;;;15.05;60.41;100863.84;5093972;27;45282;-75
2021/05/26 06:50:51;;;;;;;;;0.00;0.00;;;;;15.12;60.37;100869.81;5085771;27;45434;-77
2021/05/26 06:53:16;;;;;;;;;0.00;0.00;;;;;15.18;60.16;100869.59;5104959;27;45859;-75
2021/05/26 06:55:42;;;;;;;;;1.00;1.00;;;;;15.24;60.07;100872.03;5093547;27;45496;-75
2021/05/26 06:58:07;;;;;;;;;0.00;0.00;;;;;15.27;59.81;100877.28;5094868;27;45606;-76
2021/05/26 07:00:34;;;;;;;;;0.00;0.00;;;;;15.28;59.21;100895.06;5085709;27;47841;-77
2021/05/26 07:02:59;;;;;;;;;0.00;0.00;;;;;15.28;59.46;100890.59;5081086;27;45520;-76
2021/05/26 07:05:25;;;;;;;;;0.67;0.67;;;;;15.33;59.42;100901.09;5103510;27;45466;-76
2021/05/26 07:07:51;;;;;;;;;0.00;0.00;;;;;15.37;59.54;100901.84;5090875;27;45475;-77
2021/05/26 07:10:16;;;;;;;;;1.00;0.00;;;;;15.41;59.54;100903.50;5091839;27;47555;-77
2021/05/26 07:12:42;;;;;;;;;0.33;0.00;;;;;15.41;59.00;100907.03;5082024;27;46154;-76
2021/05/26 07:15:08;;;;;;;;;0.00;0.00;;;;;15.44;58.98;100911.38;5086737;27;45507;-76
2021/05/26 07:17:34;;;;;;;;;0.00;0.00;;;;;15.47;58.78;100914.81;5081756;27;45184;-75
2021/05/26 07:19:59;;;;;;;;;0.00;0.00;;;;;15.50;58.52;100919.16;5087185;27;47428;-76
2021/05/26 07:22:25;;;;;;;;;0.67;0.67;;;;;15.50;58.04;100919.16;5088316;27;45428;-77
2021/05/26 07:24:50;;;;;;;;;0.00;0.00;;;;;15.54;58.13;100915.44;5092222;27;45642;-78
2021/05/26 07:27:15;;;;;;;;;0.00;0.00;;;;;15.58;57.94;100925.97;5097018;27;45356;-77
2021/05/26 07:29:41;;;;;;;;;1.00;0.00;;;;;15.58;57.86;100925.09;5097023;27;47062;-76
2021/05/26 07:32:06;;;;;;;;;0.00;0.00;;;;;15.53;58.18;100935.97;5089751;27;45528;-77
2021/05/26 07:34:31;;;;;;;;;0.00;0.00;;;;;15.51;57.93;100934.31;5094812;27;45615;-78
2021/05/26 07:36:57;;;;;;;;;0.67;0.67;;;;;15.52;58.04;100944.06;5082898;27;45450;-75
2021/05/26 07:39:24;;;;;;;;;0.00;0.00;;;;;15.54;57.70;100943.06;5093308;27;47389;-75
2021/05/26 07:41:49;;;;;;;;;2.00;0.00;;;;;15.68;57.69;100939.03;5094114;27;45533;-75
2021/05/26 07:44:14;;;;;;;;;0.00;0.00;;;;;15.76;57.05;100945.81;5080510;27;45767;-75
2021/05/26 07:46:40;;;;;;;;;0.33;0.33;;;;;15.79;57.17;100951.03;5093690;27;45450;-74
2021/05/26 07:49:05;;;;;;;;;2.67;2.00;;;;;15.75;56.63;100951.22;5088855;27;46335;-75
2021/05/26 07:51:33;;;;;;;;;7.33;7.00;;;;;15.66;56.63;100955.13;5092764;27;45462;-73
2021/05/26 07:54:01;;;;;;;;;1.00;1.00;;;;;15.50;56.81;100960.19;5081865;27;45508;-76
2021/05/26 07:56:27;;;;;;;;;0.00;0.00;;;;;15.39;56.83;100962.38;5085398;27;45559;-79
2021/05/26 07:58:53;;;;;;;;;0.00;0.00;;;;;15.34;57.03;100956.31;5093155;27;47381;-77
2021/05/26 08:01:19;;;;;;;;;0.00;0.00;;;;;15.34;56.83;100967.00;5091580;27;45726;-75
2021/05/26 08:03:44;;;;;;;;;0.00;0.00;;;;;15.35;56.42;100971.44;5091007;27;45481;-74
2021/05/26 08:06:12;;;;;;;;;0.00;0.00;;;;;15.37;56.27;100963.34;5096134;27;45486;-76
2021/05/26 08:08:37;;;;;;;;;0.00;0.00;;;;;15.36;56.44;100961.59;5092983;27;46172;-74
2021/05/26 08:11:04;;;;;;;;;0.00;0.00;;;;;15.37;56.59;100964.22;5095839;27;45487;-73
2021/05/26 08:13:30;;;;;;;;;0.33;0.33;;;;;15.44;56.40;100968.41;5105416;27;45465;-75
2021/05/26 08:15:55;;;;;;;;;0.00;0.00;;;;;15.51;56.39;100951.22;5085429;27;46710;-76
2021/05/26 08:18:21;;;;;;;;;2.00;1.00;;;;;15.63;55.92;100965.09;5095362;27;48410;-76
2021/05/26 08:20:48;;;;;;;;;0.00;0.00;;;;;15.80;55.47;100962.63;5095874;27;46249;-76
2021/05/26 08:23:17;;;;;;;;;0.00;0.00;;;;;15.96;54.77;100962.88;5094950;27;45393;-76
2021/05/26 08:25:43;;;;;;;;;0.00;0.00;;;;;16.06;54.52;100973.16;5095952;27;45606;-76
2021/05/26 08:28:09;;;;;;;;;1.00;1.00;;;;;16.05;54.44;100976.78;5095915;27;47222;-76
2021/05/26 08:30:36;;;;;;;;;0.00;0.00;;;;;15.96;53.95;100977.13;5093939;27;45546;-74
2021/05/26 08:33:02;;;;;;;;;1.00;1.00;;;;;15.85;53.79;100980.22;5095507;27;45483;-75
2021/05/26 08:35:27;;;;;;;;;0.00;0.00;;;;;15.77;54.15;100977.00;5095162;27;45601;-75
2021/05/26 08:37:53;;;;;;;;;1.00;1.00;;;;;15.73;53.99;100975.34;5096668;27;47025;-70
2021/05/26 08:40:19;;;;;;;;;0.00;0.00;;;;;15.77;53.95;100986.84;5083944;27;45403;-70
2021/05/26 08:42:45;;;;;;;;;0.00;0.00;;;;;15.84;54.14;100980.28;5095969;27;45423;-70
2021/05/26 08:45:12;;;;;;;;;1.33;1.33;;;;;15.89;54.22;100978.31;5091441;27;45337;-70
2021/05/26 08:47:42;;;;;;;;;0.00;0.00;;;;;15.86;54.13;100986.44;5082558;27;48727;-71
2021/05/26 08:50:08;;;;;;;;;0.00;0.00;;;;;15.85;53.92;100982.91;5088393;27;45461;-70
2021/05/26 08:52:33;;;;;;;;;3.00;1.00;;;;;15.84;53.47;100981.16;5104314;27;45577;-70
2021/05/26 08:54:58;;;;;;;;;0.00;0.00;;;;;15.87;53.58;100983.72;5084667;27;45551;-71
2021/05/26 08:57:24;;;;;;;;;1.33;1.00;;;;;15.89;53.40;100992.56;5093939;27;47630;-70
2021/05/26 08:59:49;;;;;;;;;1.00;1.00;;;;;16.03;52.81;100993.84;5096661;27;45471;-71
2021/05/26 09:02:15;;;;;;;;;1.00;1.00;;;;;16.12;52.66;100994.31;5096383;27;45505;-71
2021/05/26 09:04:41;;;;;;;;;0.00;0.00;;;;;16.21;52.54;100989.53;5097938;27;45638;-70
2021/05/26 09:07:18;;;;;;;;;1.67;1.67;;;;;16.29;52.66;100990.09;5092312;27;48009;-70
2021/05/26 09:09:58;;;;;;;;;2.00;1.00;;;;;16.31;52.45;100988.22;5091293;27;46318;-71
2021/05/26 09:12:37;;;;;;;;;1.00;1.00;;;;;16.26;52.47;100999.16;5090747;27;45399;-71
2021/05/26 09:15:10;;;;;;;;;1.00;1.00;;;;;16.25;52.97;101008.09;5091307;27;50442;-73
2021/05/26 09:17:35;;;;;;;;;1.00;1.00;;;;;16.27;52.69;101010.72;5086399;27;47836;-73
2021/05/26 09:20:13;;;;;;;;;1.33;1.33;;;;;16.29;52.27;101008.84;5086958;27;45588;-71
2021/05/26 09:22:41;;;;;;;;;2.67;2.67;;;;;16.33;52.28;101008.66;5092141;27;45515;-72
2021/05/26 09:25:10;;;;;;;;;2.00;2.00;;;;;16.41;52.10;101009.22;5092919;27;45391;-72
2021/05/26 09:27:35;;;;;;;;;1.00;1.00;;;;;16.34;51.42;101015.75;5099657;27;46217;-72
2021/05/26 09:30:01;;;;;;;;;2.00;1.33;;;;;16.29;51.35;101007.03;5100165;27;45563;-71
2021/05/26 09:32:27;;;;;;;;;1.00;1.00;;;;;16.27;51.75;101014.28;5088690;27;45458;-71
2021/05/26 09:35:00;;;;;;;;;1.33;1.33;;;;;16.31;51.23;101015.88;5081592;27;45656;-72
2021/05/26 09:37:27;;;;;;;;;1.00;1.00;;;;;16.40;51.25;101006.63;5097877;27;45591;-72
2021/05/26 09:39:57;;;;;;;;;2.00;2.00;;;;;16.46;51.01;101009.91;5089039;27;45387;-72
2021/05/26 09:42:36;;;;;;;;;3.00;3.00;;;;;16.51;51.30;101008.81;5083542;27;45408;-72
2021/05/26 09:45:08;;;;;;;;;3.33;2.00;;;;;16.58;50.69;101031.75;5091554;27;45485;-72
2021/05/26 09:47:37;;;;;;;;;5.00;3.67;;;;;16.53;50.86;101023.94;5099743;27;48540;-73
2021/05/26 09:50:19;;;;;;;;;2.00;2.00;;;;;16.56;50.51;101022.91;5093432;27;45372;-72
2021/05/26 09:52:57;;;;;;;;;3.00;3.00;;;;;16.67;50.27;101018.88;5095483;27;45572;-72
2021/05/26 09:55:25;;;;;;;;;1.33;1.33;;;;;16.82;49.95;101016.50;5082526;27;45686;-72
2021/05/26 09:57:52;;;;;;;;;3.00;2.00;;;;;16.94;49.63;101019.53;5086947;27;45348;-73
2021/05/26 10:00:19;;;;;;;;;3.00;3.00;;;;;17.01;49.37;101023.66;5089953;27;45381;-73
2021/05/26 10:02:45;;;;;;;;;1.00;1.00;;;;;17.13;49.19;101029.44;5095360;27;45461;-74
2021/05/26 10:05:15;;;;;;;;;3.00;3.00;;;;;17.17;49.22;101023.88;5088049;27;45744;-71
2021/05/26 10:07:41;;;;;;;;;3.00;3.00;;;;;17.09;49.01;101026.03;5088239;27;49320;-70
2021/05/26 10:10:09;;;;;;;;;3.00;3.00;;;;;17.03;49.33;101034.34;5092472;27;46133;-72
2021/05/26 10:12:35;;;;;;;;;4.00;4.00;;;;;17.07;49.29;101038.63;5093070;27;45547;-71
2021/05/26 10:15:01;;;;;;;;;2.00;2.00;;;;;17.08;49.40;101040.38;5093452;27;45349;-71
2021/05/26 10:17:34;;;;;;;;;3.33;3.33;;;;;17.14;48.89;101037.41;5092410;27;45556;-73
2021/05/26 10:20:00;;;;;;;;;2.00;2.00;;;;;17.15;49.22;101043.63;5093541;27;45415;-72
2021/05/26 10:22:28;;;;;;;;;2.00;2.00;;;;;17.15;48.97;101038.28;5097584;27;45459;-72
2021/05/26 10:24:54;;;;;;;;;3.00;3.00;;;;;17.20;49.23;101045.19;5097740;27;45658;-73
2021/05/26 10:27:42;;;;;;;;;5.00;4.00;;;;;17.17;48.96;101034.63;5097476;27;45373;-73
2021/05/26 10:30:09;;;;;;;;;4.00;4.00;;;;;17.11;49.09;101042.03;5086384;27;45458;-74
2021/05/26 10:33:00;;;;;;;;;3.67;3.67;;;;;17.03;48.55;101040.56;5097863;27;45501;-73
2021/05/26 10:35:30;;;;;;;;;5.00;5.00;;;;;17.08;49.42;101045.72;5101484;27;45546;-72
2021/05/26 10:38:04;;;;;;;;;3.67;3.67;;;;;17.17;49.41;101045.34;5102304;27;48685;-73
2021/05/26 10:40:32;;;;;;;;;6.00;6.00;;;;;17.23;49.49;101046.88;5097090;27;46201;-76
2021/05/26 10:43:13;;;;;;;;;3.00;3.00;;;;;17.31;49.05;101044.72;5092752;27;46428;-72
2021/05/26 10:45:39;;;;;;;;;4.33;3.33;;;;;17.31;48.91;101044.72;5083250;27;45570;-71
2021/05/26 10:48:05;;;;;;;;;5.00;4.00;;;;;17.23;48.84;101046.88;5096433;27;48152;-73
2021/05/26 10:50:57;;;;;;;;;5.00;4.67;;;;;17.15;49.41;101049.91;5094137;27;46477;-69
2021/05/26 10:53:23;;;;;;;;;3.33;3.33;;;;;17.13;48.40;101058.94;5091862;27;45555;-70
2021/05/26 10:55:53;;;;;;;;;4.67;4.00;;;;;17.09;48.87;101055.50;5092617;27;45633;-71
2021/05/26 10:58:25;;;;;;;;;4.00;4.00;;;;;17.11;48.67;101053.63;5084533;27;47814;-72
2021/05/26 11:00:57;;;;;;;;;4.33;4.33;;;;;17.18;48.71;101051.56;5090151;27;45661;-72
2021/05/26 11:03:25;;;;;;;;;5.00;4.33;;;;;17.29;48.29;101052.84;5092846;27;45435;-70
2021/05/26 11:06:07;;;;;;;;;3.00;3.00;;;;;17.43;48.06;101046.88;5092522;27;45613;-72
2021/05/26 11:08:38;;;;;;;;;6.33;4.67;;;;;17.56;47.10;101048.06;5088783;27;48840;-73
2021/05/26 11:11:25;;;;;;;;;5.33;5.33;;;;;17.62;47.53;101050.44;5100540;27;45699;-71
2021/05/26 11:14:10;;;;;;;;;4.33;4.33;;;;;17.77;47.58;101048.03;5089556;27;45305;-72
2021/05/26 11:16:49;;;;;;;;;6.00;6.00;;;;;17.87;47.52;101042.16;5086512;27;45618;-70
2021/05/26 11:19:20;;;;;;;;;6.67;6.67;;;;;18.03;46.77;101039.63;5101380;27;47948;-72
2021/05/26 11:21:58;;;;;;;;;4.00;4.00;;;;;18.18;45.98;101041.59;5094276;27;45474;-70
2021/05/26 11:24:25;;;;;;;;;7.33;6.00;;;;;18.36;46.06;101034.47;5094905;27;45396;-69
2021/05/26 11:26:52;;;;;;;;;5.67;5.67;;;;;18.46;45.38;101034.88;5092278;27;45307;-70